sensor_id;sensor_type;location;lat;lon;timestamp;P1;durP1;ratioP1;P2;durP2;ratioP2
12896;SDS011;6516;35.028;32.372;2022-07-12T00:02:10;12.55;;;7.80;;
12896;SDS011;6516;35.028;32.372;2022-07-12T00:04:38;12.25;;;7.82;;
12896;SDS011;6516;35.028;32.372;2022-07-12T00:07:05;12.18;;;7.75;;
12896;SDS011;6516;35.028;32.372;2022-07-12T00:09:33;12.95;;;8.07;;
12896;SDS011;6516;35.028;32.372;2022-07-12T00:12:01;11.50;;;7.60;;
12896;SDS011;6516;35.028;32.372;2022-07-12T00:14:29;13.15;;;7.70;;
12896;SDS011;6516;35.028;32.372;2022-07-12T00:16:57;13.70;;;7.95;;
12896;SDS011;6516;35.028;32.372;2022-07-12T00:19:29;13.07;;;7.72;;
12896;SDS011;6516;35.028;32.372;2022-07-12T00:21:58;11.32;;;7.57;;
12896;SDS011;6516;35.028;32.372;2022-07-12T00:24:25;11.70;;;7.70;;
12896;SDS011;6516;35.028;32.372;2022-07-12T00:26:53;12.40;;;7.30;;
12896;SDS011;6516;35.028;32.372;2022-07-12T00:29:21;14.07;;;7.75;;
12896;SDS011;6516;35.028;32.372;2022-07-12T00:31:49;11.55;;;7.70;;
12896;SDS011;6516;35.028;32.372;2022-07-12T00:34:17;11.15;;;7.45;;
12896;SDS011;6516;35.028;32.372;2022-07-12T00:36:46;12.63;;;7.90;;
12896;SDS011;6516;35.028;32.372;2022-07-12T00:39:14;13.10;;;7.78;;
12896;SDS011;6516;35.028;32.372;2022-07-12T00:41:42;10.68;;;7.72;;
12896;SDS011;6516;35.028;32.372;2022-07-12T00:44:09;12.02;;;8.18;;
12896;SDS011;6516;35.028;32.372;2022-07-12T00:46:37;12.93;;;8.20;;
12896;SDS011;6516;35.028;32.372;2022-07-12T00:49:05;10.67;;;7.70;;
12896;SDS011;6516;35.028;32.372;2022-07-12T00:51:33;13.13;;;8.52;;
12896;SDS011;6516;35.028;32.372;2022-07-12T00:54:02;12.55;;;8.10;;
12896;SDS011;6516;35.028;32.372;2022-07-12T00:56:32;14.57;;;8.23;;
12896;SDS011;6516;35.028;32.372;2022-07-12T00:59:00;13.75;;;8.50;;
12896;SDS011;6516;35.028;32.372;2022-07-12T01:01:27;11.80;;;7.90;;
12896;SDS011;6516;35.028;32.372;2022-07-12T01:03:56;12.95;;;7.85;;
12896;SDS011;6516;35.028;32.372;2022-07-12T01:06:23;13.35;;;8.15;;
12896;SDS011;6516;35.028;32.372;2022-07-12T01:08:53;10.95;;;8.20;;
12896;SDS011;6516;35.028;32.372;2022-07-12T01:11:25;13.20;;;8.25;;
12896;SDS011;6516;35.028;32.372;2022-07-12T01:13:53;12.70;;;7.80;;
12896;SDS011;6516;35.028;32.372;2022-07-12T01:16:22;13.85;;;8.00;;
12896;SDS011;6516;35.028;32.372;2022-07-12T01:18:52;11.65;;;8.38;;
12896;SDS011;6516;35.028;32.372;2022-07-12T01:21:20;14.07;;;8.35;;
12896;SDS011;6516;35.028;32.372;2022-07-12T01:23:51;12.68;;;7.95;;
12896;SDS011;6516;35.028;32.372;2022-07-12T01:26:19;13.43;;;8.50;;
12896;SDS011;6516;35.028;32.372;2022-07-12T01:28:47;13.45;;;7.80;;
12896;SDS011;6516;35.028;32.372;2022-07-12T01:31:17;14.77;;;8.57;;
12896;SDS011;6516;35.028;32.372;2022-07-12T01:33:45;11.00;;;8.07;;
12896;SDS011;6516;35.028;32.372;2022-07-12T01:36:13;11.10;;;8.35;;
12896;SDS011;6516;35.028;32.372;2022-07-12T01:38:41;14.03;;;8.53;;
12896;SDS011;6516;35.028;32.372;2022-07-12T01:41:11;11.52;;;8.70;;
12896;SDS011;6516;35.028;32.372;2022-07-12T01:43:38;11.25;;;8.20;;
12896;SDS011;6516;35.028;32.372;2022-07-12T01:46:06;14.88;;;8.65;;
12896;SDS011;6516;35.028;32.372;2022-07-12T01:48:34;15.93;;;8.40;;
12896;SDS011;6516;35.028;32.372;2022-07-12T01:51:02;14.40;;;8.50;;
12896;SDS011;6516;35.028;32.372;2022-07-12T01:53:30;10.90;;;8.20;;
12896;SDS011;6516;35.028;32.372;2022-07-12T01:55:58;11.02;;;8.23;;
12896;SDS011;6516;35.028;32.372;2022-07-12T01:58:28;10.65;;;7.95;;
12896;SDS011;6516;35.028;32.372;2022-07-12T02:00:56;11.43;;;8.02;;
12896;SDS011;6516;35.028;32.372;2022-07-12T02:03:24;12.10;;;8.30;;
12896;SDS011;6516;35.028;32.372;2022-07-12T02:05:53;12.50;;;8.35;;
12896;SDS011;6516;35.028;32.372;2022-07-12T02:08:21;12.88;;;8.48;;
12896;SDS011;6516;35.028;32.372;2022-07-12T02:10:49;11.88;;;8.05;;
12896;SDS011;6516;35.028;32.372;2022-07-12T02:13:16;12.27;;;8.23;;
12896;SDS011;6516;35.028;32.372;2022-07-12T02:15:47;12.97;;;8.40;;
12896;SDS011;6516;35.028;32.372;2022-07-12T02:18:15;11.10;;;7.90;;
12896;SDS011;6516;35.028;32.372;2022-07-12T02:20:43;12.32;;;8.07;;
12896;SDS011;6516;35.028;32.372;2022-07-12T02:23:10;11.80;;;7.90;;
12896;SDS011;6516;35.028;32.372;2022-07-12T02:25:38;13.02;;;8.00;;
12896;SDS011;6516;35.028;32.372;2022-07-12T02:28:06;13.17;;;8.97;;
12896;SDS011;6516;35.028;32.372;2022-07-12T02:30:34;12.48;;;8.10;;
12896;SDS011;6516;35.028;32.372;2022-07-12T02:33:03;13.25;;;8.57;;
12896;SDS011;6516;35.028;32.372;2022-07-12T02:35:31;13.82;;;8.73;;
12896;SDS011;6516;35.028;32.372;2022-07-12T02:37:58;12.95;;;8.32;;
12896;SDS011;6516;35.028;32.372;2022-07-12T02:40:26;12.17;;;8.60;;
12896;SDS011;6516;35.028;32.372;2022-07-12T02:43:11;11.50;;;8.25;;
12896;SDS011;6516;35.028;32.372;2022-07-12T02:45:39;13.25;;;8.70;;
12896;SDS011;6516;35.028;32.372;2022-07-12T02:48:08;15.98;;;8.35;;
12896;SDS011;6516;35.028;32.372;2022-07-12T02:50:37;11.73;;;7.85;;
12896;SDS011;6516;35.028;32.372;2022-07-12T02:53:05;11.53;;;7.90;;
12896;SDS011;6516;35.028;32.372;2022-07-12T02:55:34;13.30;;;8.25;;
12896;SDS011;6516;35.028;32.372;2022-07-12T02:58:02;11.10;;;7.93;;
12896;SDS011;6516;35.028;32.372;2022-07-12T03:00:31;11.98;;;7.68;;
12896;SDS011;6516;35.028;32.372;2022-07-12T03:02:59;10.88;;;7.40;;
12896;SDS011;6516;35.028;32.372;2022-07-12T03:05:29;12.87;;;7.90;;
12896;SDS011;6516;35.028;32.372;2022-07-12T03:07:57;12.68;;;7.82;;
12896;SDS011;6516;35.028;32.372;2022-07-12T03:10:24;10.80;;;8.50;;
12896;SDS011;6516;35.028;32.372;2022-07-12T03:12:52;11.38;;;8.13;;
12896;SDS011;6516;35.028;32.372;2022-07-12T03:15:20;12.02;;;8.20;;
12896;SDS011;6516;35.028;32.372;2022-07-12T03:17:48;11.33;;;7.90;;
12896;SDS011;6516;35.028;32.372;2022-07-12T03:20:16;12.23;;;7.53;;
12896;SDS011;6516;35.028;32.372;2022-07-12T03:22:45;13.25;;;8.48;;
12896;SDS011;6516;35.028;32.372;2022-07-12T03:25:15;12.23;;;7.88;;
12896;SDS011;6516;35.028;32.372;2022-07-12T03:27:43;14.15;;;8.05;;
12896;SDS011;6516;35.028;32.372;2022-07-12T03:30:12;12.13;;;7.60;;
12896;SDS011;6516;35.028;32.372;2022-07-12T03:32:40;9.82;;;7.63;;
12896;SDS011;6516;35.028;32.372;2022-07-12T03:35:09;10.35;;;7.50;;
12896;SDS011;6516;35.028;32.372;2022-07-12T03:37:41;10.75;;;7.22;;
12896;SDS011;6516;35.028;32.372;2022-07-12T03:40:12;8.85;;;6.97;;
12896;SDS011;6516;35.028;32.372;2022-07-12T03:42:41;11.30;;;7.43;;
12896;SDS011;6516;35.028;32.372;2022-07-12T03:45:09;11.07;;;7.18;;
12896;SDS011;6516;35.028;32.372;2022-07-12T03:47:39;11.77;;;7.30;;
12896;SDS011;6516;35.028;32.372;2022-07-12T03:50:08;11.30;;;7.15;;
12896;SDS011;6516;35.028;32.372;2022-07-12T03:52:38;10.85;;;7.25;;
12896;SDS011;6516;35.028;32.372;2022-07-12T03:55:07;10.47;;;6.63;;
12896;SDS011;6516;35.028;32.372;2022-07-12T03:57:37;13.57;;;6.75;;
12896;SDS011;6516;35.028;32.372;2022-07-12T04:00:06;8.18;;;6.55;;
12896;SDS011;6516;35.028;32.372;2022-07-12T04:02:37;9.80;;;6.65;;
12896;SDS011;6516;35.028;32.372;2022-07-12T04:05:06;10.10;;;6.78;;
12896;SDS011;6516;35.028;32.372;2022-07-12T04:07:35;8.10;;;6.40;;
12896;SDS011;6516;35.028;32.372;2022-07-12T04:10:04;10.50;;;6.78;;
12896;SDS011;6516;35.028;32.372;2022-07-12T04:12:33;10.27;;;6.25;;
12896;SDS011;6516;35.028;32.372;2022-07-12T04:15:03;9.15;;;6.22;;
12896;SDS011;6516;35.028;32.372;2022-07-12T04:17:32;8.93;;;6.32;;
12896;SDS011;6516;35.028;32.372;2022-07-12T04:20:00;10.17;;;6.47;;
12896;SDS011;6516;35.028;32.372;2022-07-12T04:22:28;9.98;;;6.28;;
12896;SDS011;6516;35.028;32.372;2022-07-12T04:24:56;9.05;;;6.38;;
12896;SDS011;6516;35.028;32.372;2022-07-12T04:27:24;8.55;;;6.32;;
12896;SDS011;6516;35.028;32.372;2022-07-12T04:29:52;9.68;;;6.32;;
12896;SDS011;6516;35.028;32.372;2022-07-12T04:32:22;8.37;;;5.70;;
12896;SDS011;6516;35.028;32.372;2022-07-12T04:34:49;9.95;;;5.85;;
12896;SDS011;6516;35.028;32.372;2022-07-12T04:37:17;10.30;;;6.03;;
12896;SDS011;6516;35.028;32.372;2022-07-12T04:39:45;9.85;;;5.70;;
12896;SDS011;6516;35.028;32.372;2022-07-12T04:42:13;8.80;;;5.78;;
12896;SDS011;6516;35.028;32.372;2022-07-12T04:44:41;9.53;;;5.70;;
12896;SDS011;6516;35.028;32.372;2022-07-12T04:47:08;9.07;;;5.50;;
12896;SDS011;6516;35.028;32.372;2022-07-12T04:49:38;8.30;;;5.78;;
12896;SDS011;6516;35.028;32.372;2022-07-12T04:52:06;7.97;;;5.22;;
12896;SDS011;6516;35.028;32.372;2022-07-12T04:54:34;9.43;;;5.75;;
12896;SDS011;6516;35.028;32.372;2022-07-12T04:57:02;7.90;;;5.20;;
12896;SDS011;6516;35.028;32.372;2022-07-12T04:59:30;9.40;;;5.07;;
12896;SDS011;6516;35.028;32.372;2022-07-12T05:01:58;8.90;;;5.75;;
12896;SDS011;6516;35.028;32.372;2022-07-12T05:04:26;9.55;;;5.18;;
12896;SDS011;6516;35.028;32.372;2022-07-12T05:06:55;7.72;;;5.03;;
12896;SDS011;6516;35.028;32.372;2022-07-12T05:09:23;8.97;;;5.23;;
12896;SDS011;6516;35.028;32.372;2022-07-12T05:11:51;9.15;;;5.22;;
12896;SDS011;6516;35.028;32.372;2022-07-12T05:14:19;11.27;;;5.22;;
12896;SDS011;6516;35.028;32.372;2022-07-12T05:16:47;8.80;;;4.90;;
12896;SDS011;6516;35.028;32.372;2022-07-12T05:19:15;10.85;;;5.20;;
12896;SDS011;6516;35.028;32.372;2022-07-12T05:21:43;7.20;;;5.17;;
12896;SDS011;6516;35.028;32.372;2022-07-12T05:24:12;7.72;;;5.03;;
12896;SDS011;6516;35.028;32.372;2022-07-12T05:26:40;8.77;;;5.18;;
12896;SDS011;6516;35.028;32.372;2022-07-12T05:29:08;8.77;;;4.70;;
12896;SDS011;6516;35.028;32.372;2022-07-12T05:31:36;9.68;;;5.07;;
12896;SDS011;6516;35.028;32.372;2022-07-12T05:34:04;7.50;;;4.80;;
12896;SDS011;6516;35.028;32.372;2022-07-12T05:36:32;8.07;;;4.50;;
12896;SDS011;6516;35.028;32.372;2022-07-12T05:39:00;8.38;;;4.82;;
12896;SDS011;6516;35.028;32.372;2022-07-12T05:41:29;10.85;;;4.85;;
12896;SDS011;6516;35.028;32.372;2022-07-12T05:43:57;11.10;;;4.72;;
12896;SDS011;6516;35.028;32.372;2022-07-12T05:46:25;12.77;;;4.93;;
12896;SDS011;6516;35.028;32.372;2022-07-12T05:48:53;8.80;;;4.47;;
12896;SDS011;6516;35.028;32.372;2022-07-12T05:51:21;9.57;;;4.97;;
12896;SDS011;6516;35.028;32.372;2022-07-12T05:54:06;9.90;;;5.28;;
12896;SDS011;6516;35.028;32.372;2022-07-12T05:56:37;8.40;;;4.63;;
12896;SDS011;6516;35.028;32.372;2022-07-12T05:59:05;9.17;;;5.10;;
12896;SDS011;6516;35.028;32.372;2022-07-12T06:01:35;8.95;;;5.10;;
12896;SDS011;6516;35.028;32.372;2022-07-12T06:04:03;8.88;;;5.00;;
12896;SDS011;6516;35.028;32.372;2022-07-12T06:06:31;8.38;;;5.00;;
12896;SDS011;6516;35.028;32.372;2022-07-12T06:08:59;9.18;;;5.13;;
12896;SDS011;6516;35.028;32.372;2022-07-12T06:11:27;9.90;;;4.93;;
12896;SDS011;6516;35.028;32.372;2022-07-12T06:13:56;9.70;;;5.10;;
12896;SDS011;6516;35.028;32.372;2022-07-12T06:16:24;9.02;;;4.90;;
12896;SDS011;6516;35.028;32.372;2022-07-12T06:18:52;8.48;;;4.97;;
12896;SDS011;6516;35.028;32.372;2022-07-12T06:21:20;9.05;;;5.35;;
12896;SDS011;6516;35.028;32.372;2022-07-12T06:23:48;9.53;;;5.07;;
12896;SDS011;6516;35.028;32.372;2022-07-12T06:26:16;9.02;;;5.50;;
12896;SDS011;6516;35.028;32.372;2022-07-12T06:28:44;10.77;;;5.70;;
12896;SDS011;6516;35.028;32.372;2022-07-12T06:31:13;8.93;;;5.30;;
12896;SDS011;6516;35.028;32.372;2022-07-12T06:33:41;8.75;;;5.38;;
12896;SDS011;6516;35.028;32.372;2022-07-12T06:36:09;9.37;;;5.20;;
12896;SDS011;6516;35.028;32.372;2022-07-12T06:38:37;8.13;;;5.35;;
12896;SDS011;6516;35.028;32.372;2022-07-12T06:41:04;8.63;;;5.25;;
12896;SDS011;6516;35.028;32.372;2022-07-12T06:43:32;7.57;;;5.10;;
12896;SDS011;6516;35.028;32.372;2022-07-12T06:46:00;8.57;;;5.38;;
12896;SDS011;6516;35.028;32.372;2022-07-12T06:48:29;9.20;;;5.33;;
12896;SDS011;6516;35.028;32.372;2022-07-12T06:50:57;10.07;;;5.00;;
12896;SDS011;6516;35.028;32.372;2022-07-12T06:53:25;8.27;;;5.47;;
12896;SDS011;6516;35.028;32.372;2022-07-12T06:55:53;8.50;;;5.30;;
12896;SDS011;6516;35.028;32.372;2022-07-12T06:58:22;8.15;;;5.30;;
12896;SDS011;6516;35.028;32.372;2022-07-12T07:00:50;7.70;;;4.90;;
12896;SDS011;6516;35.028;32.372;2022-07-12T07:03:19;9.57;;;5.25;;
12896;SDS011;6516;35.028;32.372;2022-07-12T07:05:48;9.75;;;5.88;;
12896;SDS011;6516;35.028;32.372;2022-07-12T07:08:16;10.32;;;5.20;;
12896;SDS011;6516;35.028;32.372;2022-07-12T07:10:44;9.18;;;5.30;;
12896;SDS011;6516;35.028;32.372;2022-07-12T07:13:12;11.07;;;5.60;;
12896;SDS011;6516;35.028;32.372;2022-07-12T07:15:40;9.95;;;5.30;;
12896;SDS011;6516;35.028;32.372;2022-07-12T07:18:08;9.73;;;5.57;;
12896;SDS011;6516;35.028;32.372;2022-07-12T07:20:36;9.02;;;5.65;;
12896;SDS011;6516;35.028;32.372;2022-07-12T07:23:07;9.65;;;5.43;;
12896;SDS011;6516;35.028;32.372;2022-07-12T07:25:36;8.80;;;5.10;;
12896;SDS011;6516;35.028;32.372;2022-07-12T07:28:04;8.20;;;5.60;;
12896;SDS011;6516;35.028;32.372;2022-07-12T07:30:32;9.10;;;5.63;;
12896;SDS011;6516;35.028;32.372;2022-07-12T07:33:22;9.38;;;5.68;;
12896;SDS011;6516;35.028;32.372;2022-07-12T07:35:52;10.75;;;5.20;;
12896;SDS011;6516;35.028;32.372;2022-07-12T07:38:21;8.20;;;5.23;;
12896;SDS011;6516;35.028;32.372;2022-07-12T07:40:49;9.68;;;5.07;;
12896;SDS011;6516;35.028;32.372;2022-07-12T07:43:17;9.05;;;5.90;;
12896;SDS011;6516;35.028;32.372;2022-07-12T07:45:45;10.52;;;5.75;;
12896;SDS011;6516;35.028;32.372;2022-07-12T07:48:15;8.68;;;5.47;;
12896;SDS011;6516;35.028;32.372;2022-07-12T07:50:43;7.47;;;5.33;;
12896;SDS011;6516;35.028;32.372;2022-07-12T07:53:11;9.02;;;5.78;;
12896;SDS011;6516;35.028;32.372;2022-07-12T07:55:41;8.98;;;5.82;;
12896;SDS011;6516;35.028;32.372;2022-07-12T07:58:09;11.23;;;5.85;;
12896;SDS011;6516;35.028;32.372;2022-07-12T08:00:36;12.73;;;5.80;;
12896;SDS011;6516;35.028;32.372;2022-07-12T08:03:06;9.47;;;5.50;;
12896;SDS011;6516;35.028;32.372;2022-07-12T08:05:35;9.75;;;5.30;;
12896;SDS011;6516;35.028;32.372;2022-07-12T08:08:03;9.00;;;5.68;;
12896;SDS011;6516;35.028;32.372;2022-07-12T08:10:31;8.50;;;5.15;;
12896;SDS011;6516;35.028;32.372;2022-07-12T08:13:01;8.73;;;5.35;;
12896;SDS011;6516;35.028;32.372;2022-07-12T08:15:30;9.43;;;5.20;;
12896;SDS011;6516;35.028;32.372;2022-07-12T08:17:58;10.85;;;5.65;;
12896;SDS011;6516;35.028;32.372;2022-07-12T08:20:26;9.68;;;5.50;;
12896;SDS011;6516;35.028;32.372;2022-07-12T08:22:54;9.57;;;5.75;;
12896;SDS011;6516;35.028;32.372;2022-07-12T08:25:22;10.25;;;5.70;;
12896;SDS011;6516;35.028;32.372;2022-07-12T08:27:50;9.33;;;5.60;;
12896;SDS011;6516;35.028;32.372;2022-07-12T08:30:19;7.53;;;5.30;;
12896;SDS011;6516;35.028;32.372;2022-07-12T08:32:48;10.82;;;5.80;;
12896;SDS011;6516;35.028;32.372;2022-07-12T08:35:16;8.35;;;5.47;;
12896;SDS011;6516;35.028;32.372;2022-07-12T08:37:45;9.38;;;5.65;;
12896;SDS011;6516;35.028;32.372;2022-07-12T08:40:13;10.10;;;5.47;;
12896;SDS011;6516;35.028;32.372;2022-07-12T08:42:41;10.93;;;5.90;;
12896;SDS011;6516;35.028;32.372;2022-07-12T08:45:10;8.30;;;6.05;;
12896;SDS011;6516;35.028;32.372;2022-07-12T08:47:39;8.95;;;5.40;;
12896;SDS011;6516;35.028;32.372;2022-07-12T08:50:11;10.38;;;5.68;;
12896;SDS011;6516;35.028;32.372;2022-07-12T08:52:42;10.10;;;5.50;;
12896;SDS011;6516;35.028;32.372;2022-07-12T08:55:22;10.00;;;6.05;;
12896;SDS011;6516;35.028;32.372;2022-07-12T08:57:53;10.88;;;5.75;;
12896;SDS011;6516;35.028;32.372;2022-07-12T09:00:22;10.40;;;5.60;;
12896;SDS011;6516;35.028;32.372;2022-07-12T09:02:53;14.48;;;6.20;;
12896;SDS011;6516;35.028;32.372;2022-07-12T09:05:24;8.83;;;5.70;;
12896;SDS011;6516;35.028;32.372;2022-07-12T09:08:01;9.00;;;5.50;;
12896;SDS011;6516;35.028;32.372;2022-07-12T09:10:30;8.93;;;5.65;;
12896;SDS011;6516;35.028;32.372;2022-07-12T09:12:59;8.40;;;5.97;;
12896;SDS011;6516;35.028;32.372;2022-07-12T09:15:28;9.57;;;6.00;;
12896;SDS011;6516;35.028;32.372;2022-07-12T09:17:58;10.03;;;5.67;;
12896;SDS011;6516;35.028;32.372;2022-07-12T09:20:27;9.93;;;5.90;;
12896;SDS011;6516;35.028;32.372;2022-07-12T09:22:57;8.93;;;5.50;;
12896;SDS011;6516;35.028;32.372;2022-07-12T09:25:27;10.23;;;5.72;;
12896;SDS011;6516;35.028;32.372;2022-07-12T09:27:57;9.48;;;5.88;;
12896;SDS011;6516;35.028;32.372;2022-07-12T09:30:26;7.53;;;5.40;;
12896;SDS011;6516;35.028;32.372;2022-07-12T09:33:00;9.98;;;5.80;;
12896;SDS011;6516;35.028;32.372;2022-07-12T09:35:58;8.50;;;5.80;;
12896;SDS011;6516;35.028;32.372;2022-07-12T09:38:32;8.15;;;5.80;;
12896;SDS011;6516;35.028;32.372;2022-07-12T09:41:02;10.73;;;6.55;;
12896;SDS011;6516;35.028;32.372;2022-07-12T09:43:31;10.97;;;5.70;;
12896;SDS011;6516;35.028;32.372;2022-07-12T09:45:59;10.55;;;6.13;;
12896;SDS011;6516;35.028;32.372;2022-07-12T09:48:29;11.80;;;5.90;;
12896;SDS011;6516;35.028;32.372;2022-07-12T09:50:57;8.35;;;5.70;;
12896;SDS011;6516;35.028;32.372;2022-07-12T09:53:27;10.40;;;6.10;;
12896;SDS011;6516;35.028;32.372;2022-07-12T09:55:59;9.53;;;5.70;;
12896;SDS011;6516;35.028;32.372;2022-07-12T09:58:34;9.23;;;5.78;;
12896;SDS011;6516;35.028;32.372;2022-07-12T10:01:07;9.63;;;6.10;;
12896;SDS011;6516;35.028;32.372;2022-07-12T10:03:36;10.95;;;6.32;;
12896;SDS011;6516;35.028;32.372;2022-07-12T10:06:07;10.80;;;6.13;;
12896;SDS011;6516;35.028;32.372;2022-07-12T10:08:35;9.27;;;5.50;;
12896;SDS011;6516;35.028;32.372;2022-07-12T10:11:03;9.40;;;5.40;;
12896;SDS011;6516;35.028;32.372;2022-07-12T10:13:32;8.00;;;5.60;;
12896;SDS011;6516;35.028;32.372;2022-07-12T10:16:02;9.90;;;5.65;;
12896;SDS011;6516;35.028;32.372;2022-07-12T10:18:30;10.00;;;5.53;;
12896;SDS011;6516;35.028;32.372;2022-07-12T10:21:00;9.50;;;5.80;;
12896;SDS011;6516;35.028;32.372;2022-07-12T10:23:31;8.38;;;5.45;;
12896;SDS011;6516;35.028;32.372;2022-07-12T10:26:23;11.50;;;5.40;;
12896;SDS011;6516;35.028;32.372;2022-07-12T10:29:07;7.40;;;5.05;;
12896;SDS011;6516;35.028;32.372;2022-07-12T10:31:36;9.70;;;4.93;;
12896;SDS011;6516;35.028;32.372;2022-07-12T10:34:10;9.57;;;5.20;;
12896;SDS011;6516;35.028;32.372;2022-07-12T10:39:40;9.82;;;5.40;;
12896;SDS011;6516;35.028;32.372;2022-07-12T10:42:14;11.82;;;5.53;;
12896;SDS011;6516;35.028;32.372;2022-07-12T10:44:44;8.90;;;5.30;;
12896;SDS011;6516;35.028;32.372;2022-07-12T10:47:15;9.07;;;4.87;;
12896;SDS011;6516;35.028;32.372;2022-07-12T10:49:47;9.07;;;5.40;;
12896;SDS011;6516;35.028;32.372;2022-07-12T10:52:23;8.48;;;5.07;;
12896;SDS011;6516;35.028;32.372;2022-07-12T10:57:48;8.57;;;5.00;;
12896;SDS011;6516;35.028;32.372;2022-07-12T11:00:18;8.03;;;5.33;;
12896;SDS011;6516;35.028;32.372;2022-07-12T11:02:48;10.20;;;5.57;;
12896;SDS011;6516;35.028;32.372;2022-07-12T11:05:16;10.05;;;5.93;;
12896;SDS011;6516;35.028;32.372;2022-07-12T11:07:53;8.82;;;5.43;;
12896;SDS011;6516;35.028;32.372;2022-07-12T11:10:22;12.32;;;5.43;;
12896;SDS011;6516;35.028;32.372;2022-07-12T11:12:50;8.83;;;5.43;;
12896;SDS011;6516;35.028;32.372;2022-07-12T11:15:18;12.10;;;5.85;;
12896;SDS011;6516;35.028;32.372;2022-07-12T11:17:46;8.73;;;5.45;;
12896;SDS011;6516;35.028;32.372;2022-07-12T11:20:14;8.13;;;5.22;;
12896;SDS011;6516;35.028;32.372;2022-07-12T11:22:42;11.13;;;5.53;;
12896;SDS011;6516;35.028;32.372;2022-07-12T11:25:12;14.13;;;5.73;;
12896;SDS011;6516;35.028;32.372;2022-07-12T11:27:41;8.57;;;5.53;;
12896;SDS011;6516;35.028;32.372;2022-07-12T11:30:09;8.20;;;5.10;;
12896;SDS011;6516;35.028;32.372;2022-07-12T11:32:39;9.73;;;5.43;;
12896;SDS011;6516;35.028;32.372;2022-07-12T11:35:18;9.52;;;5.70;;
12896;SDS011;6516;35.028;32.372;2022-07-12T11:37:48;10.33;;;5.27;;
12896;SDS011;6516;35.028;32.372;2022-07-12T11:40:22;9.75;;;5.55;;
12896;SDS011;6516;35.028;32.372;2022-07-12T11:42:55;10.20;;;5.90;;
12896;SDS011;6516;35.028;32.372;2022-07-12T11:45:25;8.75;;;5.30;;
12896;SDS011;6516;35.028;32.372;2022-07-12T11:47:54;8.23;;;5.47;;
12896;SDS011;6516;35.028;32.372;2022-07-12T11:50:25;9.37;;;5.40;;
12896;SDS011;6516;35.028;32.372;2022-07-12T11:52:53;11.73;;;5.82;;
12896;SDS011;6516;35.028;32.372;2022-07-12T11:55:24;9.73;;;5.60;;
12896;SDS011;6516;35.028;32.372;2022-07-12T11:58:00;10.82;;;6.10;;
12896;SDS011;6516;35.028;32.372;2022-07-12T12:00:31;10.07;;;5.80;;
12896;SDS011;6516;35.028;32.372;2022-07-12T12:03:00;11.07;;;5.70;;
12896;SDS011;6516;35.028;32.372;2022-07-12T12:05:28;13.00;;;5.80;;
12896;SDS011;6516;35.028;32.372;2022-07-12T12:07:57;9.23;;;5.35;;
12896;SDS011;6516;35.028;32.372;2022-07-12T12:10:27;9.95;;;5.50;;
12896;SDS011;6516;35.028;32.372;2022-07-12T12:12:56;10.52;;;5.20;;
12896;SDS011;6516;35.028;32.372;2022-07-12T12:15:25;9.47;;;5.53;;
12896;SDS011;6516;35.028;32.372;2022-07-12T12:17:57;8.75;;;5.40;;
12896;SDS011;6516;35.028;32.372;2022-07-12T12:20:27;9.35;;;5.78;;
12896;SDS011;6516;35.028;32.372;2022-07-12T12:22:57;11.35;;;5.40;;
12896;SDS011;6516;35.028;32.372;2022-07-12T12:25:28;10.05;;;5.43;;
12896;SDS011;6516;35.028;32.372;2022-07-12T12:27:58;9.70;;;5.60;;
12896;SDS011;6516;35.028;32.372;2022-07-12T12:30:28;11.93;;;5.85;;
12896;SDS011;6516;35.028;32.372;2022-07-12T12:32:58;9.73;;;5.82;;
12896;SDS011;6516;35.028;32.372;2022-07-12T12:35:30;9.27;;;5.43;;
12896;SDS011;6516;35.028;32.372;2022-07-12T12:37:59;9.77;;;5.60;;
12896;SDS011;6516;35.028;32.372;2022-07-12T12:40:31;11.27;;;5.33;;
12896;SDS011;6516;35.028;32.372;2022-07-12T12:43:07;10.07;;;5.50;;
12896;SDS011;6516;35.028;32.372;2022-07-12T12:45:44;8.85;;;5.32;;
12896;SDS011;6516;35.028;32.372;2022-07-12T12:48:17;10.80;;;5.80;;
12896;SDS011;6516;35.028;32.372;2022-07-12T12:50:47;8.32;;;5.32;;
12896;SDS011;6516;35.028;32.372;2022-07-12T12:53:17;10.03;;;5.60;;
12896;SDS011;6516;35.028;32.372;2022-07-12T12:55:47;11.25;;;5.70;;
12896;SDS011;6516;35.028;32.372;2022-07-12T12:58:18;14.10;;;6.07;;
12896;SDS011;6516;35.028;32.372;2022-07-12T13:00:47;9.85;;;5.53;;
12896;SDS011;6516;35.028;32.372;2022-07-12T13:03:18;11.63;;;5.30;;
12896;SDS011;6516;35.028;32.372;2022-07-12T13:05:47;9.47;;;5.57;;
12896;SDS011;6516;35.028;32.372;2022-07-12T13:08:15;10.10;;;5.53;;
12896;SDS011;6516;35.028;32.372;2022-07-12T13:10:44;7.90;;;5.43;;
12896;SDS011;6516;35.028;32.372;2022-07-12T13:13:35;9.25;;;5.00;;
12896;SDS011;6516;35.028;32.372;2022-07-12T13:16:04;9.68;;;5.60;;
12896;SDS011;6516;35.028;32.372;2022-07-12T13:18:32;9.33;;;4.83;;
12896;SDS011;6516;35.028;32.372;2022-07-12T13:21:01;10.50;;;5.32;;
12896;SDS011;6516;35.028;32.372;2022-07-12T13:23:29;8.60;;;5.07;;
12896;SDS011;6516;35.028;32.372;2022-07-12T13:25:59;9.27;;;5.30;;
12896;SDS011;6516;35.028;32.372;2022-07-12T13:28:27;9.20;;;5.35;;
12896;SDS011;6516;35.028;32.372;2022-07-12T13:30:57;9.10;;;5.20;;
12896;SDS011;6516;35.028;32.372;2022-07-12T13:33:25;10.38;;;5.18;;
12896;SDS011;6516;35.028;32.372;2022-07-12T13:35:53;12.13;;;5.70;;
12896;SDS011;6516;35.028;32.372;2022-07-12T13:38:21;9.07;;;5.10;;
12896;SDS011;6516;35.028;32.372;2022-07-12T13:40:51;9.88;;;5.63;;
12896;SDS011;6516;35.028;32.372;2022-07-12T13:43:20;9.77;;;5.50;;
12896;SDS011;6516;35.028;32.372;2022-07-12T13:45:49;9.77;;;5.20;;
12896;SDS011;6516;35.028;32.372;2022-07-12T13:48:17;9.73;;;5.40;;
12896;SDS011;6516;35.028;32.372;2022-07-12T13:50:45;11.25;;;5.47;;
12896;SDS011;6516;35.028;32.372;2022-07-12T13:53:13;11.13;;;5.82;;
12896;SDS011;6516;35.028;32.372;2022-07-12T13:55:41;14.27;;;6.03;;
12896;SDS011;6516;35.028;32.372;2022-07-12T13:58:10;11.43;;;5.72;;
12896;SDS011;6516;35.028;32.372;2022-07-12T14:00:40;12.82;;;6.05;;
12896;SDS011;6516;35.028;32.372;2022-07-12T14:03:09;9.55;;;6.10;;
12896;SDS011;6516;35.028;32.372;2022-07-12T14:05:37;12.80;;;5.97;;
12896;SDS011;6516;35.028;32.372;2022-07-12T14:08:05;11.40;;;6.00;;
12896;SDS011;6516;35.028;32.372;2022-07-12T14:10:33;11.68;;;5.88;;
12896;SDS011;6516;35.028;32.372;2022-07-12T14:13:01;10.93;;;6.15;;
12896;SDS011;6516;35.028;32.372;2022-07-12T14:15:29;10.98;;;6.07;;
12896;SDS011;6516;35.028;32.372;2022-07-12T14:18:05;7.65;;;5.65;;
12896;SDS011;6516;35.028;32.372;2022-07-12T14:20:34;10.10;;;6.20;;
12896;SDS011;6516;35.028;32.372;2022-07-12T14:23:03;9.82;;;5.97;;
12896;SDS011;6516;35.028;32.372;2022-07-12T14:25:33;10.15;;;6.53;;
12896;SDS011;6516;35.028;32.372;2022-07-12T14:28:01;12.65;;;6.22;;
12896;SDS011;6516;35.028;32.372;2022-07-12T14:30:30;14.60;;;6.82;;
12896;SDS011;6516;35.028;32.372;2022-07-12T14:32:58;8.63;;;5.47;;
12896;SDS011;6516;35.028;32.372;2022-07-12T14:35:27;9.85;;;6.40;;
12896;SDS011;6516;35.028;32.372;2022-07-12T14:37:55;11.52;;;6.03;;
12896;SDS011;6516;35.028;32.372;2022-07-12T14:40:23;10.23;;;6.10;;
12896;SDS011;6516;35.028;32.372;2022-07-12T14:42:51;11.48;;;6.40;;
12896;SDS011;6516;35.028;32.372;2022-07-12T14:45:22;10.77;;;6.53;;
12896;SDS011;6516;35.028;32.372;2022-07-12T14:47:50;9.27;;;5.95;;
12896;SDS011;6516;35.028;32.372;2022-07-12T14:50:18;10.27;;;6.15;;
12896;SDS011;6516;35.028;32.372;2022-07-12T14:52:47;12.70;;;6.03;;
12896;SDS011;6516;35.028;32.372;2022-07-12T14:55:15;9.48;;;5.88;;
12896;SDS011;6516;35.028;32.372;2022-07-12T14:57:43;11.77;;;6.30;;
12896;SDS011;6516;35.028;32.372;2022-07-12T15:00:12;11.35;;;6.03;;